CDT,Max TemperatureF,Mean TemperatureF,Min TemperatureF,Max Dew PointF,MeanDew PointF,Min DewpointF,Max Humidity, Mean Humidity, Min Humidity, Max Sea Level PressureIn, Mean Sea Level PressureIn, Min Sea Level PressureIn, Max VisibilityMiles, Mean VisibilityMiles, Min VisibilityMiles, Max Wind SpeedMPH, Mean Wind SpeedMPH, Max Gust SpeedMPH,PrecipitationIn, CloudCover, Events, WindDirDegrees
2012-9-1,88,80,72,72,71,70,79,67,55,30.04,29.96,29.87,10,8,1,25,10,30,1.75,6,Rain-Thunderstorm,179
2012-9-2,80,77,73,75,72,70,94,90,85,29.90,29.80,29.75,10,6,1,17,10,26,0.93,8,Rain-Thunderstorm,200
2012-9-3,87,80,73,75,73,72,94,82,70,29.88,29.82,29.76,10,5,0,12,2,14,0.25,7,Fog-Rain,25
2012-9-4,92,82,71,73,72,69,100,75,49,29.93,29.87,29.84,10,4,0,12,2,15,0.00,5,Fog,349
2012-9-5,90,79,67,73,69,66,93,76,59,29.92,29.87,29.82,10,5,1,33,4,47,0.28,2,Rain-Thunderstorm,28
2012-9-6,90,78,66,73,68,64,100,76,52,29.99,29.93,29.89,10,4,0,16,2,23,0.00,3,Fog,158
2012-9-7,91,79,67,71,67,62,97,74,50,29.93,29.81,29.68,10,8,1,37,6,52,0.86,4,Rain-Thunderstorm,224
2012-9-8,76,67,57,68,59,49,87,64,41,29.99,29.86,29.75,10,9,1,18,9,28,0.40,6,Rain,313
2012-9-9,77,66,54,56,53,51,86,65,43,30.12,30.02,29.94,10,10,10,15,5,20,0.00,0,,312
2012-9-10,81,68,55,56,53,50,93,65,36,30.22,30.16,30.12,10,10,10,8,2,12,0.00,0,,44
2012-9-11,83,69,54,58,54,52,93,64,34,30.24,30.18,30.14,10,10,7,10,3,14,0.00,0,,133
2012-9-12,84,72,60,61,58,53,90,65,39,30.26,30.21,30.17,10,10,9,12,3,17,0.00,2,,171
2012-9-13,85,73,61,61,59,57,90,65,40,30.28,30.22,30.18,10,10,7,13,3,17,0.00,3,,173
2012-9-14,74,66,57,63,60,52,93,80,66,30.29,30.26,30.21,10,8,2,14,5,17,0.20,4,Rain,12
2012-9-15,77,65,53,56,50,45,83,61,38,30.31,30.24,30.15,10,10,10,16,6,22,0.00,0,,62
2012-9-16,76,69,61,63,58,54,87,72,57,30.15,30.08,30.01,10,10,8,8,1,9,0.02,7,Rain,75
2012-9-17,71,68,64,68,66,62,97,92,87,30.01,29.86,29.74,8,3,0,10,3,14,2.37,7,Fog-Rain-Thunderstorm,144
2012-9-18,70,59,48,66,49,37,87,61,34,30.10,29.86,29.73,10,9,2,21,9,29,T,5,Rain,323
2012-9-19,71,58,44,45,41,38,92,62,31,30.20,30.12,30.06,10,10,10,12,4,15,0.00,0,,183
2012-9-20,79,65,50,59,51,42,90,66,42,30.07,30.00,29.93,10,10,10,18,6,24,0.00,2,,204
2012-9-21,79,65,51,60,56,49,93,71,48,30.01,29.91,29.76,10,10,5,24,8,32,0.00,3,,203
2012-9-22,76,61,45,59,47,32,87,56,25,30.20,30.02,29.82,10,10,7,23,8,29,0.00,1,,298
2012-9-23,67,53,39,43,39,37,92,63,34,30.30,30.26,30.20,10,10,10,13,2,18,0.00,0,,310
2012-9-24,71,56,40,47,40,36,92,60,28,30.31,30.19,30.05,10,10,9,12,4,20,0.00,1,,175
2012-9-25,82,68,54,66,56,44,72,65,58,30.07,30.00,29.92,10,10,8,31,7,37,0.06,4,Rain-Thunderstorm,159
2012-9-26,80,73,65,66,63,60,87,73,58,30.10,30.04,29.99,10,9,2,15,7,20,0.41,6,Rain-Thunderstorm,178
2012-9-27,81,73,65,65,64,63,93,81,68,30.16,30.12,30.09,10,7,2,7,3,,0.01,6,Rain,257
2012-9-28,73,67,61,61,55,50,90,70,49,30.14,30.09,30.06,10,7,2,12,4,16,0.06,4,Rain,325
2012-9-29,75,63,50,56,53,48,93,70,46,30.09,30.04,29.99,10,9,5,12,3,17,0.00,0,,6
2012-9-30,74,62,50,55,51,48,100,71,41,29.98,29.90,29.83,10,6,0,9,3,14,0.00,0,Fog,336